Time;durP1;ratioP1;P1;durP2;ratioP2;P2;SDS_P1;SDS_P2;PMS_P1;PMS_P2;Temp;Humidity;BMP_temperature;BMP_pressure;BME280_temperature;BME280_humidity;BME280_pressure;Samples;Min_cycle;Max_cycle;Signal;HPM_P1;HPM_P2
2022/12/13 00:00:37;;;;;;;45.30;16.00;;;-4.30;99.90;;;;;;4989767;28;20034;-80
2022/12/13 00:03:07;;;;;;;32.58;13.88;;;-4.30;99.90;;;;;;4994172;28;20034;-80
2022/12/13 00:05:44;;;;;;;32.58;15.13;;;-4.40;99.90;;;;;;4992347;28;20114;-80
2022/12/13 00:08:13;;;;;;;31.30;13.98;;;-4.30;99.90;;;;;;4994789;28;20507;-80
2022/12/13 00:10:41;;;;;;;34.10;15.30;;;-4.30;99.90;;;;;;4994620;28;20022;-81
2022/12/13 00:13:07;;;;;;;35.35;16.45;;;-4.30;99.90;;;;;;5012521;28;20026;-78
2022/12/13 00:15:39;;;;;;;31.73;14.27;;;-4.30;99.90;;;;;;4992268;28;20029;-78
2022/12/13 00:18:04;;;;;;;33.10;13.60;;;-4.30;99.90;;;;;;4991538;28;20050;-80
2022/12/13 00:20:30;;;;;;;32.17;14.98;;;-4.30;99.90;;;;;;4994109;28;20069;-80
2022/12/13 00:22:56;;;;;;;36.40;16.27;;;-4.40;99.90;;;;;;4993559;28;20045;-80
2022/12/13 00:25:25;;;;;;;37.65;15.02;;;-4.40;99.90;;;;;;4995302;28;20027;-80
2022/12/13 00:27:53;;;;;;;35.75;16.50;;;-4.30;99.90;;;;;;4997484;28;20026;-80
2022/12/13 00:30:19;;;;;;;42.78;18.35;;;-4.30;99.90;;;;;;4994335;28;20109;-80
2022/12/13 00:32:51;;;;;;;38.78;18.85;;;-4.40;99.90;;;;;;4997688;28;20022;-80
2022/12/13 00:35:19;;;;;;;35.65;16.90;;;-4.40;99.90;;;;;;4995043;28;20030;-79
2022/12/13 00:37:45;;;;;;;39.70;18.90;;;-4.40;99.90;;;;;;4994524;28;20038;-79
2022/12/13 00:40:13;;;;;;;36.47;17.38;;;-4.40;99.90;;;;;;5009204;28;20034;-79
2022/12/13 00:42:39;;;;;;;37.75;16.48;;;-4.30;99.90;;;;;;4995765;28;20034;-79
2022/12/13 00:45:23;;;;;;;40.45;18.15;;;-4.40;99.90;;;;;;4989605;28;20094;-79
2022/12/13 00:47:52;;;;;;;38.05;17.00;;;-4.40;99.90;;;;;;4991671;28;20084;-79
2022/12/13 00:50:18;;;;;;;42.58;16.63;;;-4.50;99.90;;;;;;4991861;28;20034;-80
2022/12/13 00:52:53;;;;;;;32.97;16.55;;;-4.50;99.90;;;;;;4992510;28;20033;-80
2022/12/13 00:55:18;;;;;;;35.92;16.58;;;-4.50;99.90;;;;;;4989632;28;20023;-80
2022/12/13 00:57:53;;;;;;;42.95;17.52;;;-4.50;99.90;;;;;;5001124;28;20038;-80
2022/12/13 01:00:25;;;;;;;40.88;16.77;;;-4.50;99.90;;;;;;4996131;28;20077;-79
2022/12/13 01:02:53;;;;;;;42.08;17.45;;;-4.50;99.90;;;;;;5001150;28;20030;-80
2022/12/13 01:05:19;;;;;;;35.58;16.67;;;-4.50;99.90;;;;;;4992726;28;20034;-79
2022/12/13 01:07:45;;;;;;;38.58;17.83;;;-4.50;99.90;;;;;;4998920;28;20033;-77
2022/12/13 01:10:11;;;;;;;38.17;17.30;;;-4.50;99.90;;;;;;4988603;28;20428;-77
2022/12/13 01:12:37;;;;;;;59.30;21.92;;;-4.60;99.90;;;;;;4992545;28;20026;-80
2022/12/13 01:15:07;;;;;;;46.72;19.95;;;-4.60;99.90;;;;;;5014612;28;20084;-79
2022/12/13 01:17:35;;;;;;;46.30;18.55;;;-4.60;99.90;;;;;;4996567;28;20034;-79
2022/12/13 01:20:02;;;;;;;38.22;16.63;;;-4.70;99.90;;;;;;4995345;28;20394;-80
2022/12/13 01:22:31;;;;;;;31.77;16.60;;;-4.70;99.90;;;;;;4991118;28;20035;-80
2022/12/13 01:25:06;;;;;;;57.08;21.35;;;-4.70;99.90;;;;;;4995755;28;20033;-80
2022/12/13 01:27:37;;;;;;;76.22;26.23;;;-4.70;99.90;;;;;;4986773;28;20026;-78
2022/12/13 01:30:12;;;;;;;49.05;19.92;;;-4.70;99.90;;;;;;4993861;28;20018;-78
2022/12/13 01:32:40;;;;;;;39.70;16.85;;;-4.70;99.90;;;;;;4991680;28;20026;-81
2022/12/13 01:35:15;;;;;;;37.78;16.27;;;-4.70;99.90;;;;;;4992454;28;20436;-79
2022/12/13 01:37:50;;;;;;;37.85;15.93;;;-4.70;99.90;;;;;;5010316;28;20026;-78
2022/12/13 01:40:21;;;;;;;36.85;17.25;;;-4.70;99.90;;;;;;4994884;28;20142;-78
2022/12/13 01:42:53;;;;;;;36.55;15.85;;;-4.70;99.90;;;;;;4997977;28;20541;-78
2022/12/13 01:45:28;;;;;;;37.15;15.55;;;-4.70;99.90;;;;;;5006592;28;20035;-78
2022/12/13 01:48:16;;;;;;;34.75;15.45;;;-4.70;99.90;;;;;;4999749;28;20372;-79
2022/12/13 01:50:50;;;;;;;35.20;15.95;;;-4.70;99.90;;;;;;4992510;28;20114;-79
2022/12/13 01:53:26;;;;;;;31.23;15.38;;;-4.70;99.90;;;;;;5009223;28;20023;-81
2022/12/13 01:55:56;;;;;;;34.30;16.13;;;-4.80;99.90;;;;;;4977132;28;20433;-81
2022/12/13 01:58:23;;;;;;;32.00;15.07;;;-4.80;99.90;;;;;;4978119;28;20085;-80
2022/12/13 02:00:49;;;;;;;33.10;15.63;;;-4.90;99.90;;;;;;4982135;28;20041;-78
2022/12/13 02:03:17;;;;;;;31.63;13.60;;;-4.80;99.90;;;;;;5000205;28;20037;-79
2022/12/13 02:06:08;;;;;;;34.97;16.55;;;-4.80;99.90;;;;;;4994636;28;20057;-79
2022/12/13 02:08:40;;;;;;;38.13;14.98;;;-4.80;99.90;;;;;;4997812;28;20140;-77
2022/12/13 02:11:06;;;;;;;35.75;15.57;;;-4.80;99.90;;;;;;4988693;28;20097;-79
2022/12/13 02:13:35;;;;;;;35.15;14.68;;;-4.80;99.90;;;;;;4992320;28;20108;-78
2022/12/13 02:16:15;;;;;;;29.55;14.73;;;-4.70;99.90;;;;;;4993193;28;20030;-77
2022/12/13 02:18:56;;;;;;;31.98;13.90;;;-4.80;99.90;;;;;;4983631;28;20483;-78
2022/12/13 02:21:48;;;;;;;33.63;14.88;;;-4.80;99.90;;;;;;4993745;28;20133;-78
2022/12/13 02:24:30;;;;;;;32.17;14.95;;;-4.80;99.90;;;;;;4956807;28;20102;-78
2022/12/13 02:27:10;;;;;;;34.38;14.63;;;-4.80;99.90;;;;;;4989578;28;20053;-77
2022/12/13 02:30:00;;;;;;;30.65;13.93;;;-4.80;99.90;;;;;;4991313;28;20030;-78
2022/12/13 02:32:28;;;;;;;32.60;14.70;;;-4.80;99.90;;;;;;4989368;28;20026;-77
2022/12/13 02:35:10;;;;;;;31.30;14.35;;;-4.90;99.90;;;;;;4994898;28;20033;-78
2022/12/13 02:38:12;;;;;;;28.77;14.38;;;-4.90;99.90;;;;;;4992294;28;20027;-78
2022/12/13 02:41:12;;;;;;;36.05;14.95;;;-4.90;99.90;;;;;;4991460;28;20097;-78
2022/12/13 02:43:44;;;;;;;31.30;13.95;;;-4.90;99.90;;;;;;4991875;28;20054;-78
2022/12/13 02:46:20;;;;;;;29.40;14.40;;;-4.90;99.90;;;;;;4991774;28;20042;-79
2022/12/13 02:48:51;;;;;;;28.63;14.70;;;-5.00;99.90;;;;;;4993760;28;20399;-78
2022/12/13 02:51:22;;;;;;;39.42;16.15;;;-5.00;99.90;;;;;;4999613;28;20493;-78
2022/12/13 02:53:51;;;;;;;36.17;15.20;;;-5.10;99.90;;;;;;4999008;28;20033;-78
2022/12/13 02:56:16;;;;;;;31.88;14.65;;;-5.00;99.90;;;;;;5000131;28;20026;-78
2022/12/13 02:58:53;;;;;;;28.77;13.88;;;-5.00;99.90;;;;;;4995602;28;20505;-78
2022/12/13 03:01:46;;;;;;;36.20;15.05;;;-5.00;99.90;;;;;;4993954;28;20026;-78
2022/12/13 03:06:28;;;;;;;30.80;14.38;;;-5.00;99.90;;;;;;4993783;28;20026;-79
2022/12/13 03:08:02;;;;;;;31.75;13.32;;;-5.10;99.90;;;;;;4997182;28;20052;-78
2022/12/13 03:10:51;;;;;;;30.40;13.30;;;-5.10;99.90;;;;;;4997971;28;20051;-79
2022/12/13 03:13:44;;;;;;;28.95;13.00;;;-5.10;99.90;;;;;;4992232;28;20023;-79
2022/12/13 03:16:26;;;;;;;27.67;12.45;;;-5.10;99.90;;;;;;4995322;28;20105;-76
2022/12/13 03:18:55;;;;;;;29.80;13.05;;;-5.20;99.90;;;;;;5003091;28;20432;-77
2022/12/13 03:21:28;;;;;;;28.80;13.32;;;-5.20;99.90;;;;;;4986272;28;20046;-77
2022/12/13 03:24:13;;;;;;;26.33;13.10;;;-5.10;99.90;;;;;;4998070;28;20105;-77
2022/12/13 03:26:42;;;;;;;28.48;12.30;;;-5.20;99.90;;;;;;4996167;28;20264;-79
2022/12/13 03:29:13;;;;;;;25.25;12.23;;;-5.20;99.90;;;;;;4997657;28;20045;-79
2022/12/13 03:31:45;;;;;;;28.50;12.68;;;-5.20;99.90;;;;;;4997818;28;20027;-80
2022/12/13 03:34:13;;;;;;;26.52;12.05;;;-5.30;99.90;;;;;;5011562;28;20437;-80
2022/12/13 03:36:38;;;;;;;23.15;11.13;;;-5.20;99.90;;;;;;5026976;28;20495;-81
2022/12/13 03:39:04;;;;;;;24.63;11.93;;;-5.20;99.90;;;;;;4997597;28;20037;-80
2022/12/13 03:41:31;;;;;;;27.85;13.35;;;-5.30;99.90;;;;;;4994521;28;20030;-81
2022/12/13 03:44:07;;;;;;;33.00;13.88;;;-5.30;99.90;;;;;;4998106;28;20058;-81
2022/12/13 03:46:33;;;;;;;29.95;13.75;;;-5.30;99.90;;;;;;4997275;28;20109;-81
2022/12/13 03:48:58;;;;;;;27.08;12.48;;;-5.40;99.90;;;;;;4997529;28;20065;-80
2022/12/13 03:51:27;;;;;;;29.40;13.13;;;-5.40;99.90;;;;;;4993946;28;20047;-80
2022/12/13 03:53:55;;;;;;;27.70;13.45;;;-5.40;99.90;;;;;;4994149;28;20093;-81
2022/12/13 03:56:30;;;;;;;29.75;13.02;;;-5.40;99.90;;;;;;4993505;28;20084;-82
2022/12/13 03:59:05;;;;;;;29.70;13.23;;;-5.40;99.90;;;;;;4997528;28;20041;-80
2022/12/13 04:01:30;;;;;;;31.83;14.38;;;-5.40;99.90;;;;;;4997618;28;20113;-79
2022/12/13 04:03:56;;;;;;;29.38;13.27;;;-5.40;99.90;;;;;;4987861;28;20046;-80
2022/12/13 04:06:24;;;;;;;29.08;12.77;;;-5.40;99.90;;;;;;5008431;28;20461;-80
2022/12/13 04:08:51;;;;;;;31.02;13.90;;;-5.50;99.90;;;;;;4989913;28;20108;-81
2022/12/13 04:14:04;;;;;;;25.63;12.93;;;-5.50;99.90;;;;;;4998251;28;20037;-79
2022/12/13 04:16:32;;;;;;;30.48;13.75;;;-5.50;99.90;;;;;;4997567;28;20022;-79
2022/12/13 04:18:58;;;;;;;29.63;12.57;;;-5.50;99.90;;;;;;4996447;28;20034;-78
2022/12/13 04:21:27;;;;;;;26.05;12.15;;;-5.50;99.90;;;;;;4997809;28;20041;-79
2022/12/13 04:23:55;;;;;;;27.90;13.35;;;-5.50;99.90;;;;;;4995781;28;20085;-79
2022/12/13 04:26:21;;;;;;;28.70;11.57;;;-5.50;99.90;;;;;;4996813;28;20027;-76
2022/12/13 04:29:05;;;;;;;23.83;11.35;;;-5.50;99.90;;;;;;4995761;28;20145;-79
2022/12/13 04:31:33;;;;;;;26.05;12.95;;;-5.50;99.90;;;;;;4996904;28;20089;-78
2022/12/13 04:33:59;;;;;;;24.83;13.63;;;-5.50;99.90;;;;;;4997409;28;20037;-79
2022/12/13 04:36:26;;;;;;;27.90;12.98;;;-5.50;99.90;;;;;;4997065;28;20022;-79
2022/12/13 04:38:54;;;;;;;27.25;11.80;;;-5.50;99.90;;;;;;4998153;28;20403;-78
2022/12/13 04:41:23;;;;;;;29.42;13.07;;;-5.60;99.90;;;;;;4997772;28;20034;-79
2022/12/13 04:43:53;;;;;;;24.58;12.05;;;-5.60;99.90;;;;;;4996413;28;20430;-79
2022/12/13 04:46:22;;;;;;;26.08;12.60;;;-5.70;99.90;;;;;;4996108;28;20157;-79
2022/12/13 04:48:47;;;;;;;33.55;14.23;;;-5.70;99.90;;;;;;4997078;28;20033;-78
2022/12/13 04:51:15;;;;;;;29.58;13.60;;;-5.70;99.90;;;;;;4996864;28;20022;-79
2022/12/13 04:53:44;;;;;;;27.15;12.38;;;-5.70;99.90;;;;;;4995635;28;20084;-78
2022/12/13 04:56:15;;;;;;;27.15;12.15;;;-5.70;99.90;;;;;;4997363;28;20037;-78
2022/12/13 04:58:44;;;;;;;26.70;12.23;;;-5.80;99.90;;;;;;4997274;28;20023;-79
2022/12/13 05:01:13;;;;;;;32.95;15.00;;;-5.80;99.90;;;;;;4996512;28;20023;-79
2022/12/13 05:03:54;;;;;;;29.50;13.65;;;-5.80;99.90;;;;;;4997081;28;20038;-79
2022/12/13 05:06:29;;;;;;;28.35;13.88;;;-5.80;99.90;;;;;;4995861;28;20026;-78
2022/12/13 05:08:54;;;;;;;31.85;13.55;;;-5.80;99.90;;;;;;4996174;28;20049;-77
2022/12/13 05:11:20;;;;;;;30.75;14.07;;;-5.80;99.90;;;;;;5007291;28;20023;-79
2022/12/13 05:13:52;;;;;;;28.45;13.00;;;-5.80;99.90;;;;;;4998006;28;20023;-79
2022/12/13 05:16:17;;;;;;;29.95;13.68;;;-5.80;99.90;;;;;;4998026;28;20034;-78
2022/12/13 05:18:46;;;;;;;32.20;14.10;;;-5.70;99.90;;;;;;4999244;28;20033;-78
2022/12/13 05:21:12;;;;;;;35.28;13.65;;;-5.70;99.90;;;;;;4988523;28;20041;-79
2022/12/13 05:23:44;;;;;;;29.60;13.07;;;-5.70;99.90;;;;;;4992185;28;20034;-79
2022/12/13 05:26:12;;;;;;;27.70;12.63;;;-5.70;99.90;;;;;;4996682;28;20030;-79
2022/12/13 05:28:38;;;;;;;30.27;13.63;;;-5.70;99.90;;;;;;4996361;28;20513;-76
2022/12/13 05:31:09;;;;;;;33.97;14.68;;;-5.70;99.90;;;;;;4993572;28;20030;-76
2022/12/13 05:33:35;;;;;;;31.45;13.48;;;-5.70;99.90;;;;;;4992400;28;20058;-77
2022/12/13 05:36:04;;;;;;;35.88;15.02;;;-5.70;99.90;;;;;;4993688;28;20061;-77
2022/12/13 05:38:30;;;;;;;28.73;12.55;;;-5.70;99.90;;;;;;4994003;28;20022;-77
2022/12/13 05:40:59;;;;;;;31.60;14.05;;;-5.70;99.90;;;;;;4994042;28;20026;-72
2022/12/13 05:43:28;;;;;;;29.67;13.50;;;-5.70;99.90;;;;;;5011636;23;20046;-70
2022/12/13 05:45:54;;;;;;;28.48;13.25;;;-5.70;99.90;;;;;;5008373;28;20041;-69
2022/12/13 05:48:19;;;;;;;32.08;13.55;;;-5.70;99.90;;;;;;5010273;28;20653;-69
2022/12/13 05:50:45;;;;;;;32.28;14.63;;;-5.60;99.90;;;;;;5016373;28;20026;-70
2022/12/13 05:53:10;;;;;;;30.60;14.13;;;-5.60;99.90;;;;;;5005844;28;20037;-69
2022/12/13 05:55:37;;;;;;;26.95;13.00;;;-5.60;99.90;;;;;;5010794;28;20623;-69
2022/12/13 05:58:05;;;;;;;28.67;13.45;;;-5.60;99.90;;;;;;5010675;28;20418;-77
2022/12/13 06:00:34;;;;;;;28.73;13.63;;;-5.50;99.90;;;;;;5006917;28;20030;-75
2022/12/13 06:03:02;;;;;;;30.98;14.82;;;-5.50;99.90;;;;;;5010649;28;20026;-76
2022/12/13 06:05:29;;;;;;;29.35;13.68;;;-5.50;99.90;;;;;;5008749;28;20026;-76
2022/12/13 06:07:59;;;;;;;29.85;13.50;;;-5.60;99.90;;;;;;5013326;28;20037;-76
2022/12/13 06:10:25;;;;;;;31.70;14.32;;;-5.60;99.90;;;;;;5018204;28;20037;-77
2022/12/13 06:12:51;;;;;;;36.38;15.13;;;-5.60;99.90;;;;;;5036737;28;20029;-75
2022/12/13 06:15:20;;;;;;;27.92;14.00;;;-5.60;99.90;;;;;;5007137;28;20044;-75
2022/12/13 06:17:45;;;;;;;33.75;15.05;;;-5.60;99.90;;;;;;5012775;28;20124;-75
2022/12/13 06:20:14;;;;;;;31.08;13.82;;;-5.70;99.90;;;;;;5007871;28;20257;-76
2022/12/13 06:22:39;;;;;;;34.88;14.60;;;-5.70;99.90;;;;;;5043050;28;20039;-76
2022/12/13 06:25:05;;;;;;;28.27;13.43;;;-5.70;99.90;;;;;;5008358;28;20030;-77
2022/12/13 06:27:31;;;;;;;28.23;14.32;;;-5.70;99.90;;;;;;5009738;28;20033;-75
2022/12/13 06:30:00;;;;;;;33.13;14.63;;;-5.70;99.90;;;;;;5015774;28;20036;-77
2022/12/13 06:32:46;;;;;;;29.23;13.27;;;-5.70;99.90;;;;;;5011715;28;20026;-76
2022/12/13 06:35:16;;;;;;;28.90;12.73;;;-5.70;99.90;;;;;;5010886;28;20085;-77
2022/12/13 06:37:51;;;;;;;28.13;13.23;;;-5.80;99.90;;;;;;5008342;28;20022;-76
2022/12/13 06:40:17;;;;;;;34.08;14.95;;;-5.80;99.90;;;;;;5006490;28;20029;-75
2022/12/13 06:42:43;;;;;;;31.92;13.68;;;-5.80;99.90;;;;;;5009424;28;20092;-75
2022/12/13 06:45:10;;;;;;;33.15;13.77;;;-5.80;99.90;;;;;;5041910;28;20037;-76
2022/12/13 06:47:35;;;;;;;37.67;14.82;;;-5.80;99.90;;;;;;5004564;28;20435;-76
2022/12/13 06:50:01;;;;;;;31.80;14.00;;;-5.80;99.90;;;;;;5010418;28;20085;-75
2022/12/13 06:52:26;;;;;;;36.40;15.52;;;-5.80;99.90;;;;;;5006765;28;20458;-76
2022/12/13 06:54:52;;;;;;;32.95;14.93;;;-5.90;99.90;;;;;;5009214;28;20029;-75
2022/12/13 06:57:18;;;;;;;30.65;14.60;;;-5.90;99.90;;;;;;5012178;28;20057;-76
2022/12/13 06:59:44;;;;;;;35.25;15.38;;;-5.90;99.90;;;;;;5011134;28;20054;-76
2022/12/13 07:02:10;;;;;;;36.75;15.82;;;-5.90;99.90;;;;;;5007994;28;20038;-75
2022/12/13 07:04:35;;;;;;;34.13;16.05;;;-5.90;99.90;;;;;;5011793;28;20042;-75
2022/12/13 07:07:01;;;;;;;39.97;17.67;;;-6.00;99.90;;;;;;5006953;28;20022;-75
2022/12/13 07:09:28;;;;;;;38.38;16.92;;;-5.90;99.90;;;;;;5009952;28;20018;-74
2022/12/13 07:11:54;;;;;;;38.55;15.85;;;-5.90;99.90;;;;;;5012561;28;20474;-74
2022/12/13 07:14:19;;;;;;;40.80;18.05;;;-5.90;99.90;;;;;;5011588;28;20030;-75
2022/12/13 07:16:45;;;;;;;38.25;16.88;;;-5.90;99.90;;;;;;5008549;28;20018;-76
2022/12/13 07:19:14;;;;;;;39.83;15.85;;;-5.90;99.90;;;;;;5007149;28;20022;-74
2022/12/13 07:21:39;;;;;;;36.17;16.55;;;-5.90;99.90;;;;;;5004348;28;20102;-76
2022/12/13 07:24:08;;;;;;;38.03;15.68;;;-5.90;99.90;;;;;;5033142;28;20022;-76
2022/12/13 07:26:37;;;;;;;42.15;16.75;;;-5.80;99.90;;;;;;5009455;28;20030;-77
2022/12/13 07:29:05;;;;;;;42.47;16.92;;;-5.80;99.90;;;;;;5009306;28;20034;-76
2022/12/13 07:31:35;;;;;;;43.10;17.05;;;-5.80;99.90;;;;;;5013481;28;20022;-78
2022/12/13 07:34:00;;;;;;;37.67;16.25;;;-5.80;99.90;;;;;;5013509;28;20121;-75
2022/12/13 07:36:29;;;;;;;34.17;17.35;;;-5.80;99.90;;;;;;5011220;28;20106;-74
2022/12/13 07:38:56;;;;;;;51.60;18.77;;;-5.80;99.90;;;;;;5017880;28;20409;-76
2022/12/13 07:41:23;;;;;;;43.88;17.75;;;-5.90;99.90;;;;;;5011119;28;20022;-76
2022/12/13 07:43:53;;;;;;;42.38;18.85;;;-5.90;99.90;;;;;;5014769;28;20125;-75
2022/12/13 07:46:36;;;;;;;38.97;16.48;;;-5.90;99.90;;;;;;5012364;28;20510;-75
2022/12/13 07:49:03;;;;;;;38.05;16.25;;;-5.80;99.90;;;;;;5000385;28;20742;-78
2022/12/13 07:51:33;;;;;;;44.30;16.75;;;-5.80;99.90;;;;;;5005815;28;20030;-76
2022/12/13 07:53:59;;;;;;;38.17;16.35;;;-5.90;99.90;;;;;;5015530;28;20018;-77
2022/12/13 07:56:37;;;;;;;36.65;16.70;;;-5.90;99.90;;;;;;5015314;28;20076;-78
2022/12/13 07:59:03;;;;;;;45.13;17.35;;;-5.90;99.90;;;;;;5013440;28;20025;-77
2022/12/13 08:01:31;;;;;;;41.72;18.00;;;-5.90;99.90;;;;;;5009681;28;20037;-77
2022/12/13 08:03:56;;;;;;;37.35;17.45;;;-5.80;99.90;;;;;;5013218;28;20619;-76
2022/12/13 08:06:25;;;;;;;42.42;17.83;;;-5.80;99.90;;;;;;5011414;28;20026;-77
2022/12/13 08:09:06;;;;;;;39.60;15.52;;;-5.80;99.90;;;;;;5012300;28;20079;-76
2022/12/13 08:11:34;;;;;;;36.58;16.92;;;-5.70;99.90;;;;;;5014820;28;20115;-77
2022/12/13 08:14:06;;;;;;;41.88;18.90;;;-5.60;99.90;;;;;;5012847;28;20033;-77
2022/12/13 08:16:34;;;;;;;36.85;17.92;;;-5.60;99.90;;;;;;5027866;28;20030;-75
2022/12/13 08:19:09;;;;;;;32.50;16.60;;;-5.60;99.90;;;;;;5011636;28;21076;-76
2022/12/13 08:21:36;;;;;;;43.13;17.20;;;-5.50;99.90;;;;;;5014159;28;20029;-77
2022/12/13 08:24:02;;;;;;;32.92;16.10;;;-5.50;99.90;;;;;;5013214;28;20076;-78
2022/12/13 08:26:46;;;;;;;38.90;17.92;;;-5.50;99.90;;;;;;5012520;28;20026;-78
2022/12/13 08:29:12;;;;;;;;;;;-5.40;99.90;;;;;;5015079;28;20506;-77
2022/12/13 08:31:38;;;;;;;35.92;14.65;;;-5.40;99.90;;;;;;5016030;28;19917;-77
2022/12/13 08:34:04;;;;;;;37.80;16.40;;;-5.30;99.90;;;;;;5014950;28;20086;-76
2022/12/13 08:36:33;;;;;;;39.78;17.75;;;-5.30;99.90;;;;;;5040016;28;20030;-76
2022/12/13 08:39:01;;;;;;;32.70;16.30;;;-5.30;99.90;;;;;;5012775;28;20045;-77
2022/12/13 08:41:27;;;;;;;36.72;16.42;;;-5.20;99.90;;;;;;5010814;28;20048;-75
2022/12/13 08:44:02;;;;;;;38.13;16.85;;;-5.10;99.90;;;;;;5012568;28;20494;-77
2022/12/13 08:46:34;;;;;;;37.80;16.30;;;-5.10;99.90;;;;;;5011788;28;20026;-76
2022/12/13 08:48:59;;;;;;;40.30;16.65;;;-5.10;99.90;;;;;;5016545;28;20044;-77
2022/12/13 08:51:25;;;;;;;44.50;17.75;;;-5.00;99.90;;;;;;5010096;28;20033;-77
2022/12/13 08:53:51;;;;;;;36.65;16.98;;;-5.00;99.90;;;;;;5012843;28;20034;-78
2022/12/13 08:56:20;;;;;;;40.38;18.55;;;-4.90;99.90;;;;;;5014552;28;20022;-77
2022/12/13 08:58:50;;;;;;;47.25;20.48;;;-4.90;99.90;;;;;;5013063;28;20068;-77
2022/12/13 09:01:16;;;;;;;40.58;19.92;;;-4.80;99.90;;;;;;5016211;28;20133;-77
2022/12/13 09:03:47;;;;;;;39.90;19.92;;;-4.80;99.90;;;;;;5014765;28;20036;-75
2022/12/13 09:06:16;;;;;;;42.03;19.23;;;-4.80;99.90;;;;;;5009751;28;20084;-76
2022/12/13 09:08:43;;;;;;;38.58;17.38;;;-4.80;99.90;;;;;;5015558;28;20036;-77
2022/12/13 09:11:13;;;;;;;38.63;18.58;;;-4.70;99.90;;;;;;5016477;28;20153;-78
2022/12/13 09:13:42;;;;;;;39.53;18.30;;;-4.70;99.90;;;;;;5014464;28;20439;-77
2022/12/13 09:16:18;;;;;;;43.15;17.48;;;-4.70;99.90;;;;;;5007482;28;20045;-77
2022/12/13 09:18:49;;;;;;;39.88;16.25;;;-4.60;99.90;;;;;;5012958;28;20455;-75
2022/12/13 09:21:18;;;;;;;41.58;19.08;;;-4.60;99.90;;;;;;5006494;28;20663;-76
2022/12/13 09:23:49;;;;;;;45.45;17.90;;;-4.60;99.90;;;;;;5026607;28;20415;-77
2022/12/13 09:26:18;;;;;;;47.00;19.45;;;-4.50;99.90;;;;;;5011466;28;20426;-77
2022/12/13 09:28:50;;;;;;;42.60;18.63;;;-4.50;99.90;;;;;;5012160;28;20053;-79
2022/12/13 09:31:17;;;;;;;40.35;16.77;;;-4.50;99.90;;;;;;5011944;28;20030;-77
2022/12/13 09:33:46;;;;;;;43.13;17.33;;;-4.50;99.90;;;;;;5018211;28;20080;-76
2022/12/13 09:36:18;;;;;;;33.30;16.00;;;-4.50;99.90;;;;;;5010389;28;20125;-77
2022/12/13 09:38:54;;;;;;;43.35;17.42;;;-4.50;99.90;;;;;;5002999;28;20034;-77
2022/12/13 09:41:45;;;;;;;38.35;17.52;;;-4.50;99.90;;;;;;5010914;28;20040;-77
2022/12/13 09:44:41;;;;;;;41.80;17.23;;;-4.40;99.90;;;;;;5008089;28;20045;-77
2022/12/13 09:47:42;;;;;;;41.42;17.70;;;-4.40;99.90;;;;;;5015270;28;20026;-78
2022/12/13 09:50:16;;;;;;;36.25;14.88;;;-4.30;99.90;;;;;;5015098;28;20034;-78
2022/12/13 09:52:42;;;;;;;;;;;-4.30;99.90;;;;;;5019919;28;20026;-78
2022/12/13 09:55:31;;;;;;;36.13;14.65;;;-4.20;99.90;;;;;;5015452;28;19920;-76
2022/12/13 09:58:19;;;;;;;33.80;14.18;;;-4.20;99.90;;;;;;5012547;28;20575;-78
2022/12/13 10:00:54;;;;;;;29.20;13.45;;;-4.10;99.90;;;;;;5007164;28;20061;-77
2022/12/13 10:03:21;;;;;;;33.13;15.10;;;-4.20;99.90;;;;;;5012345;28;20024;-78
2022/12/13 10:06:15;;;;;;;31.90;14.70;;;-4.20;99.90;;;;;;5011531;28;20562;-76
2022/12/13 10:08:59;;;;;;;30.52;15.32;;;-4.20;99.90;;;;;;5011064;28;20074;-77
2022/12/13 10:11:28;;;;;;;32.63;14.30;;;-4.10;99.90;;;;;;5011660;28;20518;-77
2022/12/13 10:14:35;;;;;;;29.35;14.27;;;-4.00;99.90;;;;;;5010272;28;20026;-77
2022/12/13 10:17:07;;;;;;;32.35;15.35;;;-4.00;99.90;;;;;;5009382;28;20033;-77
2022/12/13 10:19:41;;;;;;;32.47;14.98;;;-3.90;99.90;;;;;;5011642;28;20022;-78
2022/12/13 10:22:13;;;;;;;33.20;14.82;;;-3.80;99.90;;;;;;5008929;28;20022;-76
2022/12/13 10:25:04;;;;;;;40.85;13.88;;;-3.80;99.90;;;;;;5008414;28;20058;-77
2022/12/13 10:27:44;;;;;;;29.48;14.68;;;-3.70;99.90;;;;;;5009202;28;20029;-77
2022/12/13 10:30:35;;;;;;;30.08;14.18;;;-3.70;99.90;;;;;;5009624;28;20088;-77
2022/12/13 10:33:04;;;;;;;37.85;15.38;;;-3.60;99.90;;;;;;5009920;28;20033;-77
2022/12/13 10:35:40;;;;;;;35.67;16.10;;;-3.60;99.90;;;;;;5003003;28;20624;-77
2022/12/13 10:38:15;;;;;;;31.67;14.23;;;-3.50;99.90;;;;;;5034712;28;20060;-76
2022/12/13 10:40:47;;;;;;;37.40;15.00;;;-3.40;99.90;;;;;;5037919;28;20478;-77
2022/12/13 10:43:16;;;;;;;37.42;14.52;;;-3.40;99.90;;;;;;5009488;28;20041;-77
2022/12/13 10:45:57;;;;;;;33.40;14.73;;;-3.30;99.90;;;;;;5008788;28;20514;-77
2022/12/13 10:48:51;;;;;;;37.05;14.57;;;-3.20;99.90;;;;;;5006582;28;20050;-77
2022/12/13 10:51:19;;;;;;;33.05;14.20;;;-3.20;99.90;;;;;;5007781;28;20026;-77
2022/12/13 10:53:59;;;;;;;31.25;13.73;;;-3.10;99.90;;;;;;5029909;28;20030;-76
2022/12/13 10:56:37;;;;;;;34.13;15.20;;;-3.10;99.90;;;;;;5012845;28;20026;-77
2022/12/13 10:59:19;;;;;;;32.10;14.70;;;-3.00;99.90;;;;;;5012138;28;20120;-76
2022/12/13 11:01:46;;;;;;;39.72;14.93;;;-3.00;99.90;;;;;;5016490;28;20123;-77
2022/12/13 11:04:33;;;;;;;33.15;15.45;;;-2.90;99.90;;;;;;5014832;28;20438;-77
2022/12/13 11:07:20;;;;;;;29.77;14.10;;;-2.90;99.90;;;;;;5021967;28;20075;-77
2022/12/13 11:09:56;;;;;;;35.38;14.90;;;-2.80;99.90;;;;;;5014566;28;20058;-77
2022/12/13 11:12:25;;;;;;;30.10;14.82;;;-2.70;99.90;;;;;;5018477;28;20026;-76
2022/12/13 11:14:57;;;;;;;27.55;14.23;;;-2.70;99.90;;;;;;5024218;28;20033;-77
2022/12/13 11:17:29;;;;;;;28.60;14.02;;;-2.60;99.90;;;;;;5027748;28;20386;-78
2022/12/13 11:19:58;;;;;;;33.60;14.43;;;-2.60;99.90;;;;;;5012115;28;20065;-77
2022/12/13 11:22:28;;;;;;;28.98;14.38;;;-2.60;99.90;;;;;;5009974;28;20033;-76
2022/12/13 11:25:18;;;;;;;28.98;14.27;;;-2.50;99.90;;;;;;5020579;28;20037;-77
2022/12/13 11:28:04;;;;;;;29.83;14.32;;;-2.60;99.90;;;;;;5010508;28;20030;-77
2022/12/13 11:30:42;;;;;;;34.08;15.48;;;-2.50;99.90;;;;;;4979153;28;20426;-77
2022/12/13 11:33:31;;;;;;;37.72;16.00;;;-2.50;99.90;;;;;;5011967;28;20394;-75
2022/12/13 11:36:16;;;;;;;32.30;14.63;;;-2.50;99.90;;;;;;5012456;28;20372;-77
2022/12/13 11:38:59;;;;;;;36.08;16.70;;;-2.40;99.90;;;;;;5012344;28;20034;-76
2022/12/13 11:41:37;;;;;;;35.58;15.30;;;-2.40;99.90;;;;;;5011048;28;20038;-74
2022/12/13 11:44:44;;;;;;;32.72;16.05;;;-2.40;99.90;;;;;;5025364;23;20173;-77
2022/12/13 11:47:18;;;;;;;36.25;16.00;;;-2.30;99.90;;;;;;4930651;29;20036;-78
2022/12/13 11:49:46;;;;;;;29.40;13.40;;;-2.30;99.90;;;;;;5002356;28;20049;-78
2022/12/13 11:52:23;;;;;;;30.88;13.30;;;-2.30;99.90;;;;;;5016772;28;20042;-77
2022/12/13 11:55:02;;;;;;;30.88;13.57;;;-2.30;99.90;;;;;;5012824;28;20034;-77
2022/12/13 11:57:43;;;;;;;32.97;14.38;;;-2.20;99.90;;;;;;5015561;28;20030;-77
2022/12/13 12:00:27;;;;;;;32.03;13.27;;;-2.20;99.90;;;;;;5029032;28;20057;-77
2022/12/13 12:02:58;;;;;;;32.28;14.70;;;-2.20;99.90;;;;;;5009062;28;20049;-77
2022/12/13 12:05:32;;;;;;;29.30;13.15;;;-2.20;99.90;;;;;;5011920;28;20066;-78
2022/12/13 12:08:01;;;;;;;;;;;-2.20;99.90;;;;;;5012762;28;20105;-77
2022/12/13 12:10:34;;;;;;;33.50;14.35;;;-2.10;99.90;;;;;;5014254;28;19957;-77
2022/12/13 12:13:11;;;;;;;31.33;13.35;;;-2.10;99.90;;;;;;5007038;28;20041;-78
2022/12/13 12:15:58;;;;;;;29.63;12.90;;;-2.10;99.90;;;;;;5015106;28;20033;-78
2022/12/13 12:18:24;;;;;;;26.25;12.52;;;-2.00;99.90;;;;;;5009230;28;20121;-78
2022/12/13 12:21:07;;;;;;;30.60;12.40;;;-2.00;99.90;;;;;;5013206;28;20550;-78
2022/12/13 12:24:04;;;;;;;30.77;13.30;;;-1.90;99.90;;;;;;5006701;28;20025;-78
2022/12/13 12:27:13;;;;;;;31.42;13.48;;;-1.90;99.90;;;;;;5009198;28;20250;-78
2022/12/13 12:30:10;;;;;;;28.55;13.57;;;-1.80;99.90;;;;;;4946822;28;20069;-77
2022/12/13 12:32:54;;;;;;;31.27;13.52;;;-1.70;99.90;;;;;;5005583;28;20037;-77
2022/12/13 12:35:44;;;;;;;32.17;12.50;;;-1.60;99.90;;;;;;5007991;28;20030;-77
2022/12/13 12:38:23;;;;;;;32.22;13.48;;;-1.50;99.90;;;;;;5011254;28;20034;-77
2022/12/13 12:41:10;;;;;;;29.88;12.82;;;-1.40;99.90;;;;;;5010819;28;20049;-77
2022/12/13 12:43:41;;;;;;;23.58;11.70;;;-1.40;99.90;;;;;;5013406;28;20029;-77
2022/12/13 12:46:28;;;;;;;29.10;11.80;;;-1.30;99.90;;;;;;5013328;28;20152;-76
2022/12/13 12:49:28;;;;;;;27.95;11.73;;;-1.30;99.90;;;;;;5009261;28;20442;-76
2022/12/13 12:52:22;;;;;;;29.23;11.65;;;-1.30;99.90;;;;;;5010883;28;20137;-76
2022/12/13 12:55:18;;;;;;;26.42;10.98;;;-1.30;99.90;;;;;;5011827;28;20048;-76
2022/12/13 12:57:50;;;;;;;26.90;10.77;;;-1.30;99.90;;;;;;5018693;28;20034;-76
2022/12/13 13:00:18;;;;;;;27.65;11.43;;;-1.30;99.90;;;;;;5027724;28;20021;-76